sensor_id;sensor_type;location;lat;lon;timestamp;pressure;altitude;pressure_sealevel;temperature;humidity
41044;BME280;51680;49.806;18.774;2023-07-29T00:02:06;96855.66;;;20.56;86.95
41044;BME280;51680;49.806;18.774;2023-07-29T00:05:09;96858.13;;;20.58;87.00
41044;BME280;51680;49.806;18.774;2023-07-29T00:08:11;96865.13;;;20.51;87.35
41044;BME280;51680;49.806;18.774;2023-07-29T00:11:13;96867.78;;;20.51;87.40
41044;BME280;51680;49.806;18.774;2023-07-29T00:14:15;96858.81;;;20.52;87.36
41044;BME280;51680;49.806;18.774;2023-07-29T00:17:16;96858.31;;;20.56;87.21
41044;BME280;51680;49.806;18.774;2023-07-29T00:20:22;96860.75;;;20.58;87.06
41044;BME280;51680;49.806;18.774;2023-07-29T00:23:23;96863.13;;;20.53;87.43
41044;BME280;51680;49.806;18.774;2023-07-29T00:26:25;96864.44;;;20.57;87.07
41044;BME280;51680;49.806;18.774;2023-07-29T00:29:29;96864.97;;;20.44;88.27
41044;BME280;51680;49.806;18.774;2023-07-29T00:32:31;96866.78;;;20.44;87.90
41044;BME280;51680;49.806;18.774;2023-07-29T00:35:34;96861.84;;;20.41;88.22
41044;BME280;51680;49.806;18.774;2023-07-29T00:38:36;96862.19;;;20.38;88.31
41044;BME280;51680;49.806;18.774;2023-07-29T00:41:37;96871.75;;;20.47;87.98
41044;BME280;51680;49.806;18.774;2023-07-29T00:44:39;96857.66;;;20.46;88.13
41044;BME280;51680;49.806;18.774;2023-07-29T00:47:42;96862.94;;;20.54;87.79
41044;BME280;51680;49.806;18.774;2023-07-29T00:50:45;96857.94;;;20.59;87.75
41044;BME280;51680;49.806;18.774;2023-07-29T00:53:47;96865.88;;;20.67;87.30
41044;BME280;51680;49.806;18.774;2023-07-29T00:56:49;96865.66;;;20.77;87.04
41044;BME280;51680;49.806;18.774;2023-07-29T00:59:51;96866.50;;;20.77;86.84
41044;BME280;51680;49.806;18.774;2023-07-29T01:02:54;96867.28;;;20.86;86.48
41044;BME280;51680;49.806;18.774;2023-07-29T01:06:07;96863.91;;;21.00;85.73
41044;BME280;51680;49.806;18.774;2023-07-29T01:09:16;96860.75;;;21.04;85.48
41044;BME280;51680;49.806;18.774;2023-07-29T01:12:21;96860.63;;;20.98;85.81
41044;BME280;51680;49.806;18.774;2023-07-29T01:15:29;96866.16;;;21.11;85.46
41044;BME280;51680;49.806;18.774;2023-07-29T01:18:36;96865.16;;;21.12;85.42
41044;BME280;51680;49.806;18.774;2023-07-29T01:21:41;96859.28;;;21.24;84.92
41044;BME280;51680;49.806;18.774;2023-07-29T01:24:45;96863.75;;;21.24;84.78
41044;BME280;51680;49.806;18.774;2023-07-29T01:27:50;96867.72;;;21.28;84.56
41044;BME280;51680;49.806;18.774;2023-07-29T01:30:58;96869.66;;;21.34;84.18
41044;BME280;51680;49.806;18.774;2023-07-29T01:34:09;96865.63;;;21.38;83.83
41044;BME280;51680;49.806;18.774;2023-07-29T01:37:16;96870.22;;;21.44;83.69
41044;BME280;51680;49.806;18.774;2023-07-29T01:40:24;96875.50;;;21.52;83.37
41044;BME280;51680;49.806;18.774;2023-07-29T01:43:28;96866.22;;;21.48;83.12
41044;BME280;51680;49.806;18.774;2023-07-29T01:46:32;96865.75;;;21.44;82.88
41044;BME280;51680;49.806;18.774;2023-07-29T01:49:34;96865.28;;;21.41;83.14
41044;BME280;51680;49.806;18.774;2023-07-29T01:52:36;96868.41;;;21.44;82.73
41044;BME280;51680;49.806;18.774;2023-07-29T01:55:40;96871.47;;;21.56;82.43
41044;BME280;51680;49.806;18.774;2023-07-29T01:58:41;96870.31;;;21.36;83.02
41044;BME280;51680;49.806;18.774;2023-07-29T02:01:43;96870.22;;;21.44;82.85
41044;BME280;51680;49.806;18.774;2023-07-29T02:04:46;96862.34;;;21.36;83.26
41044;BME280;51680;49.806;18.774;2023-07-29T02:07:52;96856.75;;;21.31;83.51
41044;BME280;51680;49.806;18.774;2023-07-29T02:10:55;96864.72;;;21.31;83.38
41044;BME280;51680;49.806;18.774;2023-07-29T02:13:58;96865.97;;;21.35;83.21
41044;BME280;51680;49.806;18.774;2023-07-29T02:17:00;96877.31;;;21.29;83.36
41044;BME280;51680;49.806;18.774;2023-07-29T02:20:03;96880.44;;;21.32;83.24
41044;BME280;51680;49.806;18.774;2023-07-29T02:23:05;96873.03;;;21.28;83.29
41044;BME280;51680;49.806;18.774;2023-07-29T02:26:08;96864.13;;;21.21;83.61
41044;BME280;51680;49.806;18.774;2023-07-29T02:29:11;96864.22;;;21.27;83.42
41044;BME280;51680;49.806;18.774;2023-07-29T02:32:13;96866.53;;;21.30;83.01
41044;BME280;51680;49.806;18.774;2023-07-29T02:35:15;96867.16;;;21.32;82.73
41044;BME280;51680;49.806;18.774;2023-07-29T02:38:16;96863.88;;;21.30;82.75
41044;BME280;51680;49.806;18.774;2023-07-29T02:41:19;96866.69;;;21.29;82.79
41044;BME280;51680;49.806;18.774;2023-07-29T02:44:22;96872.59;;;21.16;83.46
41044;BME280;51680;49.806;18.774;2023-07-29T02:47:23;96873.47;;;21.09;83.75
41044;BME280;51680;49.806;18.774;2023-07-29T02:50:25;96874.00;;;21.04;83.93
41044;BME280;51680;49.806;18.774;2023-07-29T02:53:27;96873.81;;;21.06;84.11
41044;BME280;51680;49.806;18.774;2023-07-29T02:56:30;96880.50;;;21.02;84.25
41044;BME280;51680;49.806;18.774;2023-07-29T02:59:32;96880.00;;;20.98;84.44
41044;BME280;51680;49.806;18.774;2023-07-29T03:02:33;96877.88;;;20.94;84.90
41044;BME280;51680;49.806;18.774;2023-07-29T03:05:35;96875.22;;;20.94;84.94
41044;BME280;51680;49.806;18.774;2023-07-29T03:08:38;96878.53;;;20.96;85.01
41044;BME280;51680;49.806;18.774;2023-07-29T03:11:41;96877.34;;;20.98;85.07
41044;BME280;51680;49.806;18.774;2023-07-29T03:14:44;96883.03;;;20.95;84.98
41044;BME280;51680;49.806;18.774;2023-07-29T03:17:48;96879.53;;;20.95;85.11
41044;BME280;51680;49.806;18.774;2023-07-29T03:20:50;96881.16;;;20.96;85.03
41044;BME280;51680;49.806;18.774;2023-07-29T03:23:52;96882.19;;;20.95;85.06
41044;BME280;51680;49.806;18.774;2023-07-29T03:26:55;96891.78;;;20.96;84.88
41044;BME280;51680;49.806;18.774;2023-07-29T03:29:57;96888.50;;;20.94;85.08
41044;BME280;51680;49.806;18.774;2023-07-29T03:32:59;96887.03;;;20.91;85.23
41044;BME280;51680;49.806;18.774;2023-07-29T03:36:01;96898.78;;;20.89;85.31
41044;BME280;51680;49.806;18.774;2023-07-29T03:39:03;96893.81;;;20.94;85.14
41044;BME280;51680;49.806;18.774;2023-07-29T03:42:06;96886.47;;;20.96;84.79
41044;BME280;51680;49.806;18.774;2023-07-29T03:45:09;96885.31;;;20.98;84.89
41044;BME280;51680;49.806;18.774;2023-07-29T03:48:12;96883.50;;;20.99;84.72
41044;BME280;51680;49.806;18.774;2023-07-29T03:51:14;96890.63;;;20.98;84.84
41044;BME280;51680;49.806;18.774;2023-07-29T03:54:15;96898.41;;;21.00;84.95
41044;BME280;51680;49.806;18.774;2023-07-29T03:57:19;96894.75;;;21.01;84.92
41044;BME280;51680;49.806;18.774;2023-07-29T04:00:20;96898.41;;;21.00;85.06
41044;BME280;51680;49.806;18.774;2023-07-29T04:03:23;96902.06;;;20.99;85.29
41044;BME280;51680;49.806;18.774;2023-07-29T04:06:26;96902.03;;;21.07;85.00
41044;BME280;51680;49.806;18.774;2023-07-29T04:09:28;96893.38;;;21.13;84.99
41044;BME280;51680;49.806;18.774;2023-07-29T04:12:31;96900.22;;;21.30;84.60
41044;BME280;51680;49.806;18.774;2023-07-29T04:15:33;96896.47;;;21.47;83.81
41044;BME280;51680;49.806;18.774;2023-07-29T04:18:35;96896.47;;;21.69;82.91
41044;BME280;51680;49.806;18.774;2023-07-29T04:21:37;96897.00;;;22.02;81.73
41044;BME280;51680;49.806;18.774;2023-07-29T04:24:39;96904.75;;;22.26;80.97
41044;BME280;51680;49.806;18.774;2023-07-29T04:27:42;96907.06;;;22.43;80.23
41044;BME280;51680;49.806;18.774;2023-07-29T04:30:43;96906.00;;;22.52;79.86
41044;BME280;51680;49.806;18.774;2023-07-29T04:33:45;96911.41;;;22.59;79.55
41044;BME280;51680;49.806;18.774;2023-07-29T04:36:47;96904.88;;;22.76;79.23
41044;BME280;51680;49.806;18.774;2023-07-29T04:39:50;96905.59;;;22.99;78.91
41044;BME280;51680;49.806;18.774;2023-07-29T04:42:53;96907.31;;;23.21;77.89
41044;BME280;51680;49.806;18.774;2023-07-29T04:45:54;96900.03;;;23.29;77.31
41044;BME280;51680;49.806;18.774;2023-07-29T04:48:56;96899.03;;;23.30;77.00
41044;BME280;51680;49.806;18.774;2023-07-29T04:51:58;96907.47;;;23.34;76.56
41044;BME280;51680;49.806;18.774;2023-07-29T04:55:00;96908.81;;;23.44;76.42
41044;BME280;51680;49.806;18.774;2023-07-29T04:58:03;96911.03;;;23.62;76.37
41044;BME280;51680;49.806;18.774;2023-07-29T05:01:05;96914.28;;;23.78;76.19
41044;BME280;51680;49.806;18.774;2023-07-29T05:04:07;96919.19;;;23.96;75.42
41044;BME280;51680;49.806;18.774;2023-07-29T05:07:09;96925.44;;;24.09;75.32
41044;BME280;51680;49.806;18.774;2023-07-29T05:10:10;96925.41;;;24.30;74.78
41044;BME280;51680;49.806;18.774;2023-07-29T05:13:14;96916.66;;;24.43;74.09
41044;BME280;51680;49.806;18.774;2023-07-29T05:16:16;96929.16;;;24.63;73.06
41044;BME280;51680;49.806;18.774;2023-07-29T05:19:17;96920.44;;;24.89;72.94
41044;BME280;51680;49.806;18.774;2023-07-29T05:22:19;96921.84;;;25.19;72.26
41044;BME280;51680;49.806;18.774;2023-07-29T05:25:21;96924.16;;;25.35;71.22
41044;BME280;51680;49.806;18.774;2023-07-29T05:28:24;96922.31;;;25.29;71.42
41044;BME280;51680;49.806;18.774;2023-07-29T05:31:26;96924.03;;;25.49;70.42
41044;BME280;51680;49.806;18.774;2023-07-29T05:34:28;96920.34;;;25.76;69.92
41044;BME280;51680;49.806;18.774;2023-07-29T05:37:30;96922.66;;;25.99;68.37
41044;BME280;51680;49.806;18.774;2023-07-29T05:40:31;96920.63;;;26.14;68.06
41044;BME280;51680;49.806;18.774;2023-07-29T05:43:35;96923.88;;;26.48;67.77
41044;BME280;51680;49.806;18.774;2023-07-29T05:46:36;96928.00;;;26.83;66.76
41044;BME280;51680;49.806;18.774;2023-07-29T05:49:38;96927.59;;;27.37;65.35
41044;BME280;51680;49.806;18.774;2023-07-29T05:52:41;96921.03;;;27.70;64.16
41044;BME280;51680;49.806;18.774;2023-07-29T05:55:43;96918.13;;;27.72;64.31
41044;BME280;51680;49.806;18.774;2023-07-29T05:58:46;96924.50;;;27.71;63.87
41044;BME280;51680;49.806;18.774;2023-07-29T06:01:47;96913.03;;;27.57;63.64
41044;BME280;51680;49.806;18.774;2023-07-29T06:04:49;96911.47;;;27.81;63.16
41044;BME280;51680;49.806;18.774;2023-07-29T06:07:51;96919.56;;;28.05;62.56
41044;BME280;51680;49.806;18.774;2023-07-29T06:10:53;96928.88;;;28.76;61.64
41044;BME280;51680;49.806;18.774;2023-07-29T06:13:56;96936.25;;;29.53;60.28
41044;BME280;51680;49.806;18.774;2023-07-29T06:16:58;96933.38;;;30.25;57.78
41044;BME280;51680;49.806;18.774;2023-07-29T06:20:01;96938.09;;;30.87;56.41
41044;BME280;51680;49.806;18.774;2023-07-29T06:23:03;96936.44;;;31.09;54.95
41044;BME280;51680;49.806;18.774;2023-07-29T06:26:05;96942.28;;;31.29;54.41
41044;BME280;51680;49.806;18.774;2023-07-29T06:29:08;96931.19;;;31.54;52.96
41044;BME280;51680;49.806;18.774;2023-07-29T06:32:10;96928.25;;;31.55;52.45
41044;BME280;51680;49.806;18.774;2023-07-29T06:35:12;96935.72;;;31.76;51.82
41044;BME280;51680;49.806;18.774;2023-07-29T06:38:13;96937.22;;;32.00;51.37
41044;BME280;51680;49.806;18.774;2023-07-29T06:41:15;96932.59;;;32.12;50.75
41044;BME280;51680;49.806;18.774;2023-07-29T06:44:18;96931.47;;;32.25;50.16
41044;BME280;51680;49.806;18.774;2023-07-29T06:47:20;96942.81;;;32.10;49.95
41044;BME280;51680;49.806;18.774;2023-07-29T06:50:22;96941.06;;;32.32;50.15
41044;BME280;51680;49.806;18.774;2023-07-29T06:53:23;96941.25;;;32.59;49.71
41044;BME280;51680;49.806;18.774;2023-07-29T06:56:25;96941.09;;;32.82;48.99
41044;BME280;51680;49.806;18.774;2023-07-29T06:59:28;96949.44;;;32.80;48.87
41044;BME280;51680;49.806;18.774;2023-07-29T07:02:30;96941.06;;;32.98;48.91
41044;BME280;51680;49.806;18.774;2023-07-29T07:05:32;96932.47;;;33.44;47.18
41044;BME280;51680;49.806;18.774;2023-07-29T07:08:34;96937.88;;;33.66;46.87
41044;BME280;51680;49.806;18.774;2023-07-29T07:11:35;96938.50;;;33.73;46.78
41044;BME280;51680;49.806;18.774;2023-07-29T07:14:38;96938.25;;;34.01;45.55
41044;BME280;51680;49.806;18.774;2023-07-29T07:17:40;96935.88;;;34.31;45.38
41044;BME280;51680;49.806;18.774;2023-07-29T07:20:42;96935.31;;;34.65;44.66
41044;BME280;51680;49.806;18.774;2023-07-29T07:23:44;96933.16;;;34.62;44.20
41044;BME280;51680;49.806;18.774;2023-07-29T07:26:46;96934.19;;;34.56;44.97
41044;BME280;51680;49.806;18.774;2023-07-29T07:29:49;96937.97;;;34.55;44.42
41044;BME280;51680;49.806;18.774;2023-07-29T07:32:51;96934.72;;;34.27;43.70
41044;BME280;51680;49.806;18.774;2023-07-29T07:35:52;96933.72;;;34.33;43.87
41044;BME280;51680;49.806;18.774;2023-07-29T07:38:54;96926.81;;;34.52;43.98
41044;BME280;51680;49.806;18.774;2023-07-29T07:41:56;96940.41;;;34.88;44.00
41044;BME280;51680;49.806;18.774;2023-07-29T07:44:59;96938.75;;;34.51;43.77
41044;BME280;51680;49.806;18.774;2023-07-29T07:48:01;96931.41;;;34.20;44.48
41044;BME280;51680;49.806;18.774;2023-07-29T07:51:10;96939.09;;;33.53;41.54
41044;BME280;51680;49.806;18.774;2023-07-29T07:54:12;96940.06;;;32.71;46.81
41044;BME280;51680;49.806;18.774;2023-07-29T07:57:13;96929.00;;;32.23;47.37
41044;BME280;51680;49.806;18.774;2023-07-29T08:00:17;96933.84;;;31.65;48.51
41044;BME280;51680;49.806;18.774;2023-07-29T08:03:20;96943.59;;;31.15;49.51
41044;BME280;51680;49.806;18.774;2023-07-29T08:06:22;96940.44;;;30.61;50.33
41044;BME280;51680;49.806;18.774;2023-07-29T08:09:23;96939.94;;;30.29;51.48
41044;BME280;51680;49.806;18.774;2023-07-29T08:12:25;96932.53;;;29.84;52.25
41044;BME280;51680;49.806;18.774;2023-07-29T08:15:28;96932.59;;;29.66;53.01
41044;BME280;51680;49.806;18.774;2023-07-29T08:18:30;96938.34;;;29.51;53.60
41044;BME280;51680;49.806;18.774;2023-07-29T08:21:32;96931.63;;;29.42;54.18
41044;BME280;51680;49.806;18.774;2023-07-29T08:24:33;96937.72;;;29.38;54.13
41044;BME280;51680;49.806;18.774;2023-07-29T08:27:35;96927.75;;;29.38;54.79
41044;BME280;51680;49.806;18.774;2023-07-29T08:30:38;96925.19;;;29.43;54.75
41044;BME280;51680;49.806;18.774;2023-07-29T08:33:40;96927.31;;;29.59;55.38
41044;BME280;51680;49.806;18.774;2023-07-29T08:36:42;96925.81;;;29.75;54.56
41044;BME280;51680;49.806;18.774;2023-07-29T08:39:43;96919.81;;;29.91;54.06
41044;BME280;51680;49.806;18.774;2023-07-29T08:42:47;96924.41;;;30.02;53.51
41044;BME280;51680;49.806;18.774;2023-07-29T08:45:51;96922.59;;;30.14;53.00
41044;BME280;51680;49.806;18.774;2023-07-29T08:48:53;96922.84;;;29.94;53.50
41044;BME280;51680;49.806;18.774;2023-07-29T08:51:57;96925.22;;;30.02;53.87
41044;BME280;51680;49.806;18.774;2023-07-29T08:54:59;96925.13;;;30.09;53.26
41044;BME280;51680;49.806;18.774;2023-07-29T08:58:02;96922.13;;;30.17;53.19
41044;BME280;51680;49.806;18.774;2023-07-29T09:01:06;96912.63;;;30.14;53.24
41044;BME280;51680;49.806;18.774;2023-07-29T09:04:07;96915.25;;;30.03;53.33
41044;BME280;51680;49.806;18.774;2023-07-29T09:07:09;96912.53;;;29.91;53.80
41044;BME280;51680;49.806;18.774;2023-07-29T09:10:13;96914.78;;;29.94;53.43
41044;BME280;51680;49.806;18.774;2023-07-29T09:13:14;96911.16;;;30.00;53.47
41044;BME280;51680;49.806;18.774;2023-07-29T09:16:18;96910.44;;;29.93;53.86
41044;BME280;51680;49.806;18.774;2023-07-29T09:19:20;96906.94;;;30.04;54.00
41044;BME280;51680;49.806;18.774;2023-07-29T09:22:21;96902.13;;;30.06;53.71
41044;BME280;51680;49.806;18.774;2023-07-29T09:25:25;96899.16;;;30.14;53.21
41044;BME280;51680;49.806;18.774;2023-07-29T09:28:32;96899.06;;;29.91;53.78
41044;BME280;51680;49.806;18.774;2023-07-29T09:31:36;96895.09;;;29.94;53.95
41044;BME280;51680;49.806;18.774;2023-07-29T09:34:41;96898.28;;;29.91;53.16
41044;BME280;51680;49.806;18.774;2023-07-29T09:37:43;96904.22;;;29.93;53.43
41044;BME280;51680;49.806;18.774;2023-07-29T09:40:45;96892.03;;;29.79;53.75
41044;BME280;51680;49.806;18.774;2023-07-29T09:43:47;96894.53;;;29.62;54.29
41044;BME280;51680;49.806;18.774;2023-07-29T09:46:50;96894.22;;;29.70;55.49
41044;BME280;51680;49.806;18.774;2023-07-29T09:49:52;96883.78;;;29.62;54.88
41044;BME280;51680;49.806;18.774;2023-07-29T09:52:55;96886.94;;;29.59;55.58
41044;BME280;51680;49.806;18.774;2023-07-29T09:55:58;96884.47;;;30.10;54.23
41044;BME280;51680;49.806;18.774;2023-07-29T09:59:00;96879.66;;;30.01;53.93
41044;BME280;51680;49.806;18.774;2023-07-29T10:02:04;96882.66;;;30.45;53.65
41044;BME280;51680;49.806;18.774;2023-07-29T10:05:06;96887.34;;;30.61;52.53
41044;BME280;51680;49.806;18.774;2023-07-29T10:08:09;96877.06;;;30.35;52.51
41044;BME280;51680;49.806;18.774;2023-07-29T10:11:12;96895.31;;;30.56;53.09
41044;BME280;51680;49.806;18.774;2023-07-29T10:14:14;96883.22;;;31.05;52.34
41044;BME280;51680;49.806;18.774;2023-07-29T10:17:20;96876.03;;;31.50;51.45
41044;BME280;51680;49.806;18.774;2023-07-29T10:20:22;96866.81;;;31.62;51.27
41044;BME280;51680;49.806;18.774;2023-07-29T10:23:25;96868.44;;;31.75;51.24
41044;BME280;51680;49.806;18.774;2023-07-29T10:26:28;96865.59;;;31.70;50.01
41044;BME280;51680;49.806;18.774;2023-07-29T10:29:38;96877.25;;;31.70;50.83
41044;BME280;51680;49.806;18.774;2023-07-29T10:32:43;96880.09;;;31.92;50.85
41044;BME280;51680;49.806;18.774;2023-07-29T10:35:46;96872.13;;;31.85;49.69
41044;BME280;51680;49.806;18.774;2023-07-29T10:38:48;96869.75;;;31.89;49.67
41044;BME280;51680;49.806;18.774;2023-07-29T10:42:08;96874.25;;;31.83;48.87
41044;BME280;51680;49.806;18.774;2023-07-29T10:45:20;96875.75;;;31.91;50.23
41044;BME280;51680;49.806;18.774;2023-07-29T10:48:43;96863.13;;;31.80;48.88
41044;BME280;51680;49.806;18.774;2023-07-29T10:51:45;96868.47;;;31.91;50.75
41044;BME280;51680;49.806;18.774;2023-07-29T10:54:47;96862.22;;;32.24;50.70
41044;BME280;51680;49.806;18.774;2023-07-29T10:57:49;96852.16;;;32.52;49.04
41044;BME280;51680;49.806;18.774;2023-07-29T11:00:51;96858.63;;;32.68;48.82
41044;BME280;51680;49.806;18.774;2023-07-29T11:04:26;96851.41;;;32.57;48.49
41044;BME280;51680;49.806;18.774;2023-07-29T11:07:28;96848.97;;;32.55;49.09
41044;BME280;51680;49.806;18.774;2023-07-29T11:10:42;96839.78;;;32.56;47.49
41044;BME280;51680;49.806;18.774;2023-07-29T11:13:44;96845.41;;;32.33;48.28
41044;BME280;51680;49.806;18.774;2023-07-29T11:16:46;96844.53;;;32.16;48.53
41044;BME280;51680;49.806;18.774;2023-07-29T11:19:50;96844.22;;;31.96;48.11
41044;BME280;51680;49.806;18.774;2023-07-29T11:22:53;96838.94;;;31.73;49.27
41044;BME280;51680;49.806;18.774;2023-07-29T11:25:55;96840.31;;;31.59;50.52
41044;BME280;51680;49.806;18.774;2023-07-29T11:28:57;96843.78;;;31.43;50.77
41044;BME280;51680;49.806;18.774;2023-07-29T11:31:59;96844.56;;;31.27;51.27
41044;BME280;51680;49.806;18.774;2023-07-29T11:35:03;96842.13;;;31.14;51.46
41044;BME280;51680;49.806;18.774;2023-07-29T11:38:05;96847.59;;;30.91;52.08
41044;BME280;51680;49.806;18.774;2023-07-29T11:41:07;96845.59;;;30.87;52.17
41044;BME280;51680;49.806;18.774;2023-07-29T11:44:09;96845.75;;;30.69;53.20
41044;BME280;51680;49.806;18.774;2023-07-29T11:47:12;96848.22;;;30.70;53.49
41044;BME280;51680;49.806;18.774;2023-07-29T11:50:15;96848.53;;;30.62;53.15
41044;BME280;51680;49.806;18.774;2023-07-29T11:53:17;96848.19;;;30.13;53.72
41044;BME280;51680;49.806;18.774;2023-07-29T11:56:19;96833.13;;;29.59;54.69
41044;BME280;51680;49.806;18.774;2023-07-29T11:59:21;96841.19;;;28.93;56.23
41044;BME280;51680;49.806;18.774;2023-07-29T12:02:23;96836.97;;;28.25;56.99
41044;BME280;51680;49.806;18.774;2023-07-29T12:05:27;96833.88;;;27.79;58.18
41044;BME280;51680;49.806;18.774;2023-07-29T12:08:29;96830.00;;;27.38;59.88
41044;BME280;51680;49.806;18.774;2023-07-29T12:11:31;96834.72;;;27.05;61.71
41044;BME280;51680;49.806;18.774;2023-07-29T12:14:34;96833.66;;;27.12;61.58
41044;BME280;51680;49.806;18.774;2023-07-29T12:17:39;96839.31;;;26.85;63.04
41044;BME280;51680;49.806;18.774;2023-07-29T12:20:43;96850.03;;;26.85;63.50
41044;BME280;51680;49.806;18.774;2023-07-29T12:23:45;96828.06;;;26.70;64.56
41044;BME280;51680;49.806;18.774;2023-07-29T12:26:47;96833.19;;;26.78;64.30
41044;BME280;51680;49.806;18.774;2023-07-29T12:29:51;96832.38;;;26.71;65.15
41044;BME280;51680;49.806;18.774;2023-07-29T12:32:53;96827.06;;;26.51;66.24
41044;BME280;51680;49.806;18.774;2023-07-29T12:35:56;96826.66;;;26.61;66.79
41044;BME280;51680;49.806;18.774;2023-07-29T12:38:59;96838.81;;;26.50;67.45
41044;BME280;51680;49.806;18.774;2023-07-29T12:42:02;96837.41;;;26.35;67.53
41044;BME280;51680;49.806;18.774;2023-07-29T12:45:05;96826.91;;;26.27;67.42
41044;BME280;51680;49.806;18.774;2023-07-29T12:48:07;96824.22;;;26.40;68.10
41044;BME280;51680;49.806;18.774;2023-07-29T12:51:10;96824.63;;;26.37;67.91
41044;BME280;51680;49.806;18.774;2023-07-29T12:54:12;96820.78;;;26.20;67.01
41044;BME280;51680;49.806;18.774;2023-07-29T12:57:14;96822.00;;;26.24;65.56
41044;BME280;51680;49.806;18.774;2023-07-29T13:00:15;96823.44;;;26.13;65.74
41044;BME280;51680;49.806;18.774;2023-07-29T13:03:17;96819.13;;;26.12;65.24
41044;BME280;51680;49.806;18.774;2023-07-29T13:06:20;96810.72;;;25.96;64.55
41044;BME280;51680;49.806;18.774;2023-07-29T13:09:22;96815.63;;;25.66;64.50
41044;BME280;51680;49.806;18.774;2023-07-29T13:12:24;96810.09;;;25.87;64.21
41044;BME280;51680;49.806;18.774;2023-07-29T13:15:26;96820.19;;;25.92;63.89
41044;BME280;51680;49.806;18.774;2023-07-29T13:18:28;96828.41;;;25.71;64.02
41044;BME280;51680;49.806;18.774;2023-07-29T13:21:31;96815.00;;;25.90;64.94
41044;BME280;51680;49.806;18.774;2023-07-29T13:24:32;96810.91;;;26.01;63.88
41044;BME280;51680;49.806;18.774;2023-07-29T13:27:34;96795.81;;;26.39;63.69
41044;BME280;51680;49.806;18.774;2023-07-29T13:30:36;96795.53;;;26.53;64.29
41044;BME280;51680;49.806;18.774;2023-07-29T13:33:38;96796.94;;;26.69;64.29
41044;BME280;51680;49.806;18.774;2023-07-29T13:36:41;96791.97;;;26.79;64.18
41044;BME280;51680;49.806;18.774;2023-07-29T13:39:43;96792.84;;;26.66;64.75
41044;BME280;51680;49.806;18.774;2023-07-29T13:42:45;96788.75;;;26.51;65.23
41044;BME280;51680;49.806;18.774;2023-07-29T13:45:47;96793.25;;;26.63;65.61
41044;BME280;51680;49.806;18.774;2023-07-29T13:48:50;96787.09;;;26.63;66.23
41044;BME280;51680;49.806;18.774;2023-07-29T13:51:53;96769.38;;;26.62;66.89
41044;BME280;51680;49.806;18.774;2023-07-29T13:54:55;96775.53;;;26.69;66.69
41044;BME280;51680;49.806;18.774;2023-07-29T13:57:57;96774.03;;;26.79;65.69
41044;BME280;51680;49.806;18.774;2023-07-29T14:00:58;96764.19;;;27.04;65.71
41044;BME280;51680;49.806;18.774;2023-07-29T14:04:00;96769.19;;;27.01;66.02
41044;BME280;51680;49.806;18.774;2023-07-29T14:07:03;96761.44;;;27.24;65.24
41044;BME280;51680;49.806;18.774;2023-07-29T14:10:06;96761.06;;;27.45;64.47
41044;BME280;51680;49.806;18.774;2023-07-29T14:13:08;96743.75;;;27.41;63.17
41044;BME280;51680;49.806;18.774;2023-07-29T14:16:10;96745.47;;;27.60;63.61
41044;BME280;51680;49.806;18.774;2023-07-29T14:19:11;96742.47;;;27.74;64.08
41044;BME280;51680;49.806;18.774;2023-07-29T14:22:14;96741.78;;;27.79;63.45
41044;BME280;51680;49.806;18.774;2023-07-29T14:25:16;96731.84;;;27.86;62.61
41044;BME280;51680;49.806;18.774;2023-07-29T14:28:18;96725.28;;;27.82;62.84
41044;BME280;51680;49.806;18.774;2023-07-29T14:31:20;96720.81;;;27.94;62.47
41044;BME280;51680;49.806;18.774;2023-07-29T14:34:22;96725.91;;;28.02;63.21
41044;BME280;51680;49.806;18.774;2023-07-29T14:37:25;96718.44;;;28.04;63.65
41044;BME280;51680;49.806;18.774;2023-07-29T14:40:27;96715.03;;;28.15;62.29
41044;BME280;51680;49.806;18.774;2023-07-29T14:43:29;96717.31;;;28.11;62.66
41044;BME280;51680;49.806;18.774;2023-07-29T14:46:31;96716.06;;;27.96;62.96
41044;BME280;51680;49.806;18.774;2023-07-29T14:49:33;96717.38;;;27.87;63.49
41044;BME280;51680;49.806;18.774;2023-07-29T14:52:36;96715.59;;;28.17;62.76
41044;BME280;51680;49.806;18.774;2023-07-29T14:55:38;96715.38;;;28.18;61.58
41044;BME280;51680;49.806;18.774;2023-07-29T14:58:40;96725.66;;;28.21;61.50
41044;BME280;51680;49.806;18.774;2023-07-29T15:01:41;96732.44;;;28.24;61.10
41044;BME280;51680;49.806;18.774;2023-07-29T15:04:43;96738.00;;;28.29;61.43
41044;BME280;51680;49.806;18.774;2023-07-29T15:07:46;96740.91;;;28.27;61.22
41044;BME280;51680;49.806;18.774;2023-07-29T15:10:48;96740.75;;;28.22;61.71
41044;BME280;51680;49.806;18.774;2023-07-29T15:13:50;96751.03;;;28.07;62.21
41044;BME280;51680;49.806;18.774;2023-07-29T15:16:52;96759.00;;;28.14;62.20
41044;BME280;51680;49.806;18.774;2023-07-29T15:19:53;96751.09;;;28.19;61.73
41044;BME280;51680;49.806;18.774;2023-07-29T15:22:57;96754.41;;;28.21;62.23
41044;BME280;51680;49.806;18.774;2023-07-29T15:25:58;96756.19;;;28.27;61.82
41044;BME280;51680;49.806;18.774;2023-07-29T15:29:00;96753.78;;;28.19;61.47
41044;BME280;51680;49.806;18.774;2023-07-29T15:32:03;96761.25;;;28.17;61.38
41044;BME280;51680;49.806;18.774;2023-07-29T15:35:05;96761.09;;;28.12;62.15
41044;BME280;51680;49.806;18.774;2023-07-29T15:38:08;96761.53;;;28.09;62.11
41044;BME280;51680;49.806;18.774;2023-07-29T15:41:10;96758.69;;;28.04;62.33
41044;BME280;51680;49.806;18.774;2023-07-29T15:44:12;96762.72;;;27.95;62.07
41044;BME280;51680;49.806;18.774;2023-07-29T15:47:13;96761.97;;;27.88;62.59
41044;BME280;51680;49.806;18.774;2023-07-29T15:50:18;96757.44;;;27.88;62.47
41044;BME280;51680;49.806;18.774;2023-07-29T15:53:21;96758.84;;;27.91;61.09
41044;BME280;51680;49.806;18.774;2023-07-29T15:56:23;96759.22;;;27.94;61.52